Terminal Aerodrome Forecast
Issued by NWS

Home | Current Version | Previous Version | Text Only | Print | Product List | Glossary On
Versions: 1 2 3 4 5 6 7 8 9 10 11 12 13 14 15 16 17 18 19 20 21
000
FTUS43 KGRB 232330
TAFATW
TAF
KATW 232330Z 2400/2424 07008KT P6SM SCT025 BKN060
     FM240400 04012G24KT 5SM -SN OVC025
     FM240700 03014G25KT 1 1/2SM -SN OVC010
     FM241000 03016G28KT 1SM -SN OVC008
     FM241200 03018G30KT 2SM -FZRAPL BR OVC008
     FM242100 03020G32KT 2SM -SNPL BR OVC008=

USA.gov is the U.S. government's official web portal to all federal, state and local government web resources and services.